sensor_id;sensor_type;location;lat;lon;timestamp;P1;durP1;ratioP1;P2;durP2;ratioP2
24644;SDS011;12780;45.502;9.146;2023-06-24T00:02:16;7.78;;;4.50;;
24644;SDS011;12780;45.502;9.146;2023-06-24T00:04:42;8.93;;;4.15;;
24644;SDS011;12780;45.502;9.146;2023-06-24T00:07:08;9.63;;;4.45;;
24644;SDS011;12780;45.502;9.146;2023-06-24T00:09:34;9.80;;;4.30;;
24644;SDS011;12780;45.502;9.146;2023-06-24T00:12:01;7.60;;;4.53;;
24644;SDS011;12780;45.502;9.146;2023-06-24T00:14:27;9.02;;;4.70;;
24644;SDS011;12780;45.502;9.146;2023-06-24T00:16:54;7.90;;;4.35;;
24644;SDS011;12780;45.502;9.146;2023-06-24T00:19:21;12.63;;;4.47;;
24644;SDS011;12780;45.502;9.146;2023-06-24T00:21:48;8.48;;;4.47;;
24644;SDS011;12780;45.502;9.146;2023-06-24T00:24:16;10.65;;;4.78;;
24644;SDS011;12780;45.502;9.146;2023-06-24T00:26:42;6.35;;;4.30;;
24644;SDS011;12780;45.502;9.146;2023-06-24T00:29:08;9.50;;;4.13;;
24644;SDS011;12780;45.502;9.146;2023-06-24T00:31:34;7.28;;;4.32;;
24644;SDS011;12780;45.502;9.146;2023-06-24T00:34:00;7.00;;;3.92;;
24644;SDS011;12780;45.502;9.146;2023-06-24T00:36:26;8.05;;;4.50;;
24644;SDS011;12780;45.502;9.146;2023-06-24T00:38:52;5.95;;;4.03;;
24644;SDS011;12780;45.502;9.146;2023-06-24T00:41:18;6.00;;;3.97;;
24644;SDS011;12780;45.502;9.146;2023-06-24T00:43:45;8.02;;;3.72;;
24644;SDS011;12780;45.502;9.146;2023-06-24T00:46:11;9.93;;;3.97;;
24644;SDS011;12780;45.502;9.146;2023-06-24T00:48:38;7.35;;;3.67;;
24644;SDS011;12780;45.502;9.146;2023-06-24T00:51:05;6.22;;;3.45;;
24644;SDS011;12780;45.502;9.146;2023-06-24T00:53:31;6.20;;;3.35;;
24644;SDS011;12780;45.502;9.146;2023-06-24T00:55:57;6.00;;;3.60;;
24644;SDS011;12780;45.502;9.146;2023-06-24T00:58:28;6.85;;;3.22;;
24644;SDS011;12780;45.502;9.146;2023-06-24T01:00:55;5.55;;;3.30;;
24644;SDS011;12780;45.502;9.146;2023-06-24T01:03:26;8.00;;;3.65;;
24644;SDS011;12780;45.502;9.146;2023-06-24T01:05:53;6.00;;;3.30;;
24644;SDS011;12780;45.502;9.146;2023-06-24T01:08:19;4.75;;;3.20;;
24644;SDS011;12780;45.502;9.146;2023-06-24T01:10:47;9.98;;;3.17;;
24644;SDS011;12780;45.502;9.146;2023-06-24T01:13:14;6.28;;;3.28;;
24644;SDS011;12780;45.502;9.146;2023-06-24T01:15:40;7.45;;;3.40;;
24644;SDS011;12780;45.502;9.146;2023-06-24T01:20:46;6.63;;;3.28;;
24644;SDS011;12780;45.502;9.146;2023-06-24T01:33:48;8.43;;;3.65;;
24644;SDS011;12780;45.502;9.146;2023-06-24T01:36:17;5.20;;;2.92;;
24644;SDS011;12780;45.502;9.146;2023-06-24T01:38:46;5.95;;;3.13;;
24644;SDS011;12780;45.502;9.146;2023-06-24T01:41:13;11.00;;;3.10;;
24644;SDS011;12780;45.502;9.146;2023-06-24T01:43:40;5.13;;;2.90;;
24644;SDS011;12780;45.502;9.146;2023-06-24T01:46:07;6.50;;;3.38;;
24644;SDS011;12780;45.502;9.146;2023-06-24T01:48:35;6.13;;;2.80;;
24644;SDS011;12780;45.502;9.146;2023-06-24T01:51:03;5.78;;;3.25;;
24644;SDS011;12780;45.502;9.146;2023-06-24T01:53:32;6.47;;;3.15;;
24644;SDS011;12780;45.502;9.146;2023-06-24T01:56:00;7.15;;;3.10;;
24644;SDS011;12780;45.502;9.146;2023-06-24T01:58:27;5.20;;;3.10;;
24644;SDS011;12780;45.502;9.146;2023-06-24T02:00:53;5.63;;;3.40;;
24644;SDS011;12780;45.502;9.146;2023-06-24T02:03:20;5.85;;;3.22;;
24644;SDS011;12780;45.502;9.146;2023-06-24T02:05:47;10.05;;;3.38;;
24644;SDS011;12780;45.502;9.146;2023-06-24T02:08:13;8.30;;;3.30;;
24644;SDS011;12780;45.502;9.146;2023-06-24T02:10:40;5.85;;;3.33;;
24644;SDS011;12780;45.502;9.146;2023-06-24T02:13:07;5.95;;;3.45;;
24644;SDS011;12780;45.502;9.146;2023-06-24T02:15:35;10.32;;;3.47;;
24644;SDS011;12780;45.502;9.146;2023-06-24T02:18:01;6.82;;;3.40;;
24644;SDS011;12780;45.502;9.146;2023-06-24T02:20:28;4.75;;;3.05;;
24644;SDS011;12780;45.502;9.146;2023-06-24T02:22:54;6.03;;;2.92;;
24644;SDS011;12780;45.502;9.146;2023-06-24T02:25:22;5.32;;;2.72;;
24644;SDS011;12780;45.502;9.146;2023-06-24T02:27:48;6.45;;;3.03;;
24644;SDS011;12780;45.502;9.146;2023-06-24T02:30:15;7.65;;;3.25;;
24644;SDS011;12780;45.502;9.146;2023-06-24T02:32:41;5.55;;;3.10;;
24644;SDS011;12780;45.502;9.146;2023-06-24T02:35:07;6.38;;;2.85;;
24644;SDS011;12780;45.502;9.146;2023-06-24T02:37:33;7.30;;;3.00;;
24644;SDS011;12780;45.502;9.146;2023-06-24T02:40:00;5.40;;;3.33;;
24644;SDS011;12780;45.502;9.146;2023-06-24T02:42:27;6.30;;;2.70;;
24644;SDS011;12780;45.502;9.146;2023-06-24T02:44:53;5.50;;;3.00;;
24644;SDS011;12780;45.502;9.146;2023-06-24T02:47:19;7.05;;;3.30;;
24644;SDS011;12780;45.502;9.146;2023-06-24T02:49:46;7.32;;;3.38;;
24644;SDS011;12780;45.502;9.146;2023-06-24T02:52:13;7.10;;;3.22;;
24644;SDS011;12780;45.502;9.146;2023-06-24T02:54:40;6.10;;;3.17;;
24644;SDS011;12780;45.502;9.146;2023-06-24T02:57:07;5.25;;;3.10;;
24644;SDS011;12780;45.502;9.146;2023-06-24T02:59:34;5.95;;;2.90;;
24644;SDS011;12780;45.502;9.146;2023-06-24T03:02:00;7.28;;;2.80;;
24644;SDS011;12780;45.502;9.146;2023-06-24T03:04:27;5.50;;;2.90;;
24644;SDS011;12780;45.502;9.146;2023-06-24T03:06:53;5.60;;;3.08;;
24644;SDS011;12780;45.502;9.146;2023-06-24T03:09:21;7.00;;;3.17;;
24644;SDS011;12780;45.502;9.146;2023-06-24T03:11:48;8.35;;;2.90;;
24644;SDS011;12780;45.502;9.146;2023-06-24T03:14:14;6.47;;;3.40;;
24644;SDS011;12780;45.502;9.146;2023-06-24T03:16:40;5.00;;;3.40;;
24644;SDS011;12780;45.502;9.146;2023-06-24T03:19:06;4.70;;;3.17;;
24644;SDS011;12780;45.502;9.146;2023-06-24T03:21:32;8.90;;;3.20;;
24644;SDS011;12780;45.502;9.146;2023-06-24T03:23:58;6.85;;;3.25;;
24644;SDS011;12780;45.502;9.146;2023-06-24T03:26:30;9.82;;;3.60;;
24644;SDS011;12780;45.502;9.146;2023-06-24T03:28:57;4.45;;;3.10;;
24644;SDS011;12780;45.502;9.146;2023-06-24T03:31:23;10.32;;;3.78;;
24644;SDS011;12780;45.502;9.146;2023-06-24T03:33:49;6.10;;;3.42;;
24644;SDS011;12780;45.502;9.146;2023-06-24T03:36:15;7.68;;;3.42;;
24644;SDS011;12780;45.502;9.146;2023-06-24T03:38:41;5.30;;;3.20;;
24644;SDS011;12780;45.502;9.146;2023-06-24T03:41:07;7.78;;;3.40;;
24644;SDS011;12780;45.502;9.146;2023-06-24T03:43:33;20.67;;;3.85;;
24644;SDS011;12780;45.502;9.146;2023-06-24T03:45:59;6.75;;;3.55;;
24644;SDS011;12780;45.502;9.146;2023-06-24T03:48:25;10.45;;;3.50;;
24644;SDS011;12780;45.502;9.146;2023-06-24T03:50:51;11.43;;;3.30;;
24644;SDS011;12780;45.502;9.146;2023-06-24T03:53:17;6.15;;;3.72;;
24644;SDS011;12780;45.502;9.146;2023-06-24T03:55:43;6.05;;;3.60;;
24644;SDS011;12780;45.502;9.146;2023-06-24T03:58:10;7.20;;;3.42;;
24644;SDS011;12780;45.502;9.146;2023-06-24T04:00:36;6.05;;;3.33;;
24644;SDS011;12780;45.502;9.146;2023-06-24T04:03:05;5.35;;;3.25;;
24644;SDS011;12780;45.502;9.146;2023-06-24T04:05:32;6.72;;;3.80;;
24644;SDS011;12780;45.502;9.146;2023-06-24T04:07:58;9.85;;;3.50;;
24644;SDS011;12780;45.502;9.146;2023-06-24T04:10:24;10.95;;;3.40;;
24644;SDS011;12780;45.502;9.146;2023-06-24T04:12:50;6.88;;;3.53;;
24644;SDS011;12780;45.502;9.146;2023-06-24T04:15:17;5.57;;;3.63;;
24644;SDS011;12780;45.502;9.146;2023-06-24T04:17:43;6.05;;;3.30;;
24644;SDS011;12780;45.502;9.146;2023-06-24T04:20:09;5.60;;;3.40;;
24644;SDS011;12780;45.502;9.146;2023-06-24T04:22:40;11.70;;;3.60;;
24644;SDS011;12780;45.502;9.146;2023-06-24T04:25:06;11.48;;;3.55;;
24644;SDS011;12780;45.502;9.146;2023-06-24T04:27:33;6.10;;;3.22;;
24644;SDS011;12780;45.502;9.146;2023-06-24T04:29:59;6.82;;;3.72;;
24644;SDS011;12780;45.502;9.146;2023-06-24T04:32:25;8.25;;;3.63;;
24644;SDS011;12780;45.502;9.146;2023-06-24T04:34:51;8.82;;;3.67;;
24644;SDS011;12780;45.502;9.146;2023-06-24T04:37:18;7.97;;;3.60;;
24644;SDS011;12780;45.502;9.146;2023-06-24T04:39:44;10.63;;;3.58;;
24644;SDS011;12780;45.502;9.146;2023-06-24T04:42:10;7.10;;;3.70;;
24644;SDS011;12780;45.502;9.146;2023-06-24T04:44:36;8.05;;;3.63;;
24644;SDS011;12780;45.502;9.146;2023-06-24T04:47:03;5.65;;;3.30;;
24644;SDS011;12780;45.502;9.146;2023-06-24T04:49:29;5.97;;;3.30;;
24644;SDS011;12780;45.502;9.146;2023-06-24T04:51:55;6.15;;;3.25;;
24644;SDS011;12780;45.502;9.146;2023-06-24T04:54:21;10.32;;;3.20;;
24644;SDS011;12780;45.502;9.146;2023-06-24T04:56:47;6.38;;;3.40;;
24644;SDS011;12780;45.502;9.146;2023-06-24T04:59:14;16.38;;;3.45;;
24644;SDS011;12780;45.502;9.146;2023-06-24T05:01:40;6.32;;;3.35;;
24644;SDS011;12780;45.502;9.146;2023-06-24T05:04:06;5.65;;;3.58;;
24644;SDS011;12780;45.502;9.146;2023-06-24T05:06:32;14.80;;;4.25;;
24644;SDS011;12780;45.502;9.146;2023-06-24T05:08:58;8.43;;;3.85;;
24644;SDS011;12780;45.502;9.146;2023-06-24T05:11:25;11.77;;;3.90;;
24644;SDS011;12780;45.502;9.146;2023-06-24T05:13:51;9.00;;;3.60;;
24644;SDS011;12780;45.502;9.146;2023-06-24T05:16:17;6.05;;;3.53;;
24644;SDS011;12780;45.502;9.146;2023-06-24T05:18:44;8.90;;;3.85;;
24644;SDS011;12780;45.502;9.146;2023-06-24T05:21:10;9.55;;;3.70;;
24644;SDS011;12780;45.502;9.146;2023-06-24T05:23:36;9.75;;;3.85;;
24644;SDS011;12780;45.502;9.146;2023-06-24T05:26:02;8.57;;;3.40;;
24644;SDS011;12780;45.502;9.146;2023-06-24T05:28:28;7.47;;;3.63;;
24644;SDS011;12780;45.502;9.146;2023-06-24T05:30:54;11.60;;;3.85;;
24644;SDS011;12780;45.502;9.146;2023-06-24T05:33:21;9.77;;;3.40;;
24644;SDS011;12780;45.502;9.146;2023-06-24T05:35:47;8.00;;;3.80;;
24644;SDS011;12780;45.502;9.146;2023-06-24T05:38:14;7.35;;;3.70;;
24644;SDS011;12780;45.502;9.146;2023-06-24T05:40:40;11.20;;;3.58;;
24644;SDS011;12780;45.502;9.146;2023-06-24T05:43:06;6.72;;;3.13;;
24644;SDS011;12780;45.502;9.146;2023-06-24T05:45:32;6.50;;;3.15;;
24644;SDS011;12780;45.502;9.146;2023-06-24T05:47:58;9.23;;;3.55;;
24644;SDS011;12780;45.502;9.146;2023-06-24T05:50:24;6.75;;;3.63;;
24644;SDS011;12780;45.502;9.146;2023-06-24T05:52:50;8.80;;;3.08;;
24644;SDS011;12780;45.502;9.146;2023-06-24T05:55:16;7.85;;;3.53;;
24644;SDS011;12780;45.502;9.146;2023-06-24T05:57:42;10.25;;;3.40;;
24644;SDS011;12780;45.502;9.146;2023-06-24T06:00:08;7.55;;;3.35;;
24644;SDS011;12780;45.502;9.146;2023-06-24T06:02:35;6.32;;;3.45;;
24644;SDS011;12780;45.502;9.146;2023-06-24T06:05:01;6.43;;;3.47;;
24644;SDS011;12780;45.502;9.146;2023-06-24T06:07:27;4.75;;;3.05;;
24644;SDS011;12780;45.502;9.146;2023-06-24T06:09:53;6.50;;;3.72;;
24644;SDS011;12780;45.502;9.146;2023-06-24T06:12:19;9.75;;;3.67;;
24644;SDS011;12780;45.502;9.146;2023-06-24T06:14:45;11.90;;;3.75;;
24644;SDS011;12780;45.502;9.146;2023-06-24T06:17:11;10.07;;;3.30;;
24644;SDS011;12780;45.502;9.146;2023-06-24T06:19:37;6.53;;;3.15;;
24644;SDS011;12780;45.502;9.146;2023-06-24T06:22:06;4.22;;;3.13;;
24644;SDS011;12780;45.502;9.146;2023-06-24T06:24:32;9.05;;;3.50;;
24644;SDS011;12780;45.502;9.146;2023-06-24T06:26:58;5.90;;;3.10;;
24644;SDS011;12780;45.502;9.146;2023-06-24T06:29:24;6.80;;;3.42;;
24644;SDS011;12780;45.502;9.146;2023-06-24T06:31:50;10.80;;;3.42;;
24644;SDS011;12780;45.502;9.146;2023-06-24T06:34:17;11.07;;;3.35;;
24644;SDS011;12780;45.502;9.146;2023-06-24T06:36:43;8.07;;;3.80;;
24644;SDS011;12780;45.502;9.146;2023-06-24T06:39:09;5.03;;;3.45;;
24644;SDS011;12780;45.502;9.146;2023-06-24T06:41:35;6.60;;;3.30;;
24644;SDS011;12780;45.502;9.146;2023-06-24T06:44:01;7.97;;;3.38;;
24644;SDS011;12780;45.502;9.146;2023-06-24T06:46:27;7.35;;;3.58;;
24644;SDS011;12780;45.502;9.146;2023-06-24T06:48:53;11.07;;;3.85;;
24644;SDS011;12780;45.502;9.146;2023-06-24T06:51:19;7.28;;;3.58;;
24644;SDS011;12780;45.502;9.146;2023-06-24T06:53:45;10.68;;;3.70;;
24644;SDS011;12780;45.502;9.146;2023-06-24T06:56:24;7.57;;;3.60;;
24644;SDS011;12780;45.502;9.146;2023-06-24T06:58:51;7.88;;;3.60;;
24644;SDS011;12780;45.502;9.146;2023-06-24T07:01:17;11.48;;;3.90;;
24644;SDS011;12780;45.502;9.146;2023-06-24T07:03:43;5.63;;;3.92;;
24644;SDS011;12780;45.502;9.146;2023-06-24T07:06:10;6.88;;;3.58;;
24644;SDS011;12780;45.502;9.146;2023-06-24T07:08:36;5.53;;;3.63;;
24644;SDS011;12780;45.502;9.146;2023-06-24T07:11:02;11.07;;;3.78;;
24644;SDS011;12780;45.502;9.146;2023-06-24T07:13:28;9.32;;;3.67;;
24644;SDS011;12780;45.502;9.146;2023-06-24T07:15:54;10.43;;;3.60;;
24644;SDS011;12780;45.502;9.146;2023-06-24T07:18:20;5.57;;;3.40;;
24644;SDS011;12780;45.502;9.146;2023-06-24T07:20:46;5.15;;;3.72;;
24644;SDS011;12780;45.502;9.146;2023-06-24T07:23:12;7.90;;;3.92;;
24644;SDS011;12780;45.502;9.146;2023-06-24T07:25:38;7.38;;;3.83;;
24644;SDS011;12780;45.502;9.146;2023-06-24T07:28:04;5.60;;;3.47;;
24644;SDS011;12780;45.502;9.146;2023-06-24T07:30:30;7.68;;;3.63;;
24644;SDS011;12780;45.502;9.146;2023-06-24T07:32:56;5.57;;;3.65;;
24644;SDS011;12780;45.502;9.146;2023-06-24T07:35:22;7.82;;;3.95;;
24644;SDS011;12780;45.502;9.146;2023-06-24T07:37:48;8.15;;;3.70;;
24644;SDS011;12780;45.502;9.146;2023-06-24T07:40:14;9.15;;;4.10;;
24644;SDS011;12780;45.502;9.146;2023-06-24T07:42:41;7.07;;;3.78;;
24644;SDS011;12780;45.502;9.146;2023-06-24T07:45:07;7.32;;;3.83;;
24644;SDS011;12780;45.502;9.146;2023-06-24T07:47:33;10.13;;;3.92;;
24644;SDS011;12780;45.502;9.146;2023-06-24T07:50:01;7.97;;;4.10;;
24644;SDS011;12780;45.502;9.146;2023-06-24T07:52:27;21.48;;;3.75;;
24644;SDS011;12780;45.502;9.146;2023-06-24T07:54:53;7.45;;;4.00;;
24644;SDS011;12780;45.502;9.146;2023-06-24T07:57:19;9.50;;;3.63;;
24644;SDS011;12780;45.502;9.146;2023-06-24T07:59:45;9.73;;;4.07;;
24644;SDS011;12780;45.502;9.146;2023-06-24T08:02:11;6.97;;;3.67;;
24644;SDS011;12780;45.502;9.146;2023-06-24T08:04:37;10.85;;;3.90;;
24644;SDS011;12780;45.502;9.146;2023-06-24T08:07:03;8.77;;;4.10;;
24644;SDS011;12780;45.502;9.146;2023-06-24T08:09:30;9.50;;;4.20;;
24644;SDS011;12780;45.502;9.146;2023-06-24T08:11:56;9.07;;;3.60;;
24644;SDS011;12780;45.502;9.146;2023-06-24T08:14:22;11.23;;;4.10;;
24644;SDS011;12780;45.502;9.146;2023-06-24T08:16:48;10.88;;;3.78;;
24644;SDS011;12780;45.502;9.146;2023-06-24T08:19:14;7.80;;;4.32;;
24644;SDS011;12780;45.502;9.146;2023-06-24T08:21:40;6.78;;;4.22;;
24644;SDS011;12780;45.502;9.146;2023-06-24T08:24:06;9.38;;;3.72;;
24644;SDS011;12780;45.502;9.146;2023-06-24T08:26:33;9.88;;;4.07;;
24644;SDS011;12780;45.502;9.146;2023-06-24T08:28:59;8.25;;;4.03;;
24644;SDS011;12780;45.502;9.146;2023-06-24T08:31:25;12.50;;;3.92;;
24644;SDS011;12780;45.502;9.146;2023-06-24T08:33:51;17.77;;;4.70;;
24644;SDS011;12780;45.502;9.146;2023-06-24T08:36:18;17.73;;;4.22;;
24644;SDS011;12780;45.502;9.146;2023-06-24T08:38:44;9.93;;;4.22;;
24644;SDS011;12780;45.502;9.146;2023-06-24T08:41:10;8.02;;;4.25;;
24644;SDS011;12780;45.502;9.146;2023-06-24T08:43:36;10.80;;;4.43;;
24644;SDS011;12780;45.502;9.146;2023-06-24T08:46:03;10.30;;;4.05;;
24644;SDS011;12780;45.502;9.146;2023-06-24T08:48:29;6.32;;;3.70;;
24644;SDS011;12780;45.502;9.146;2023-06-24T08:50:56;7.22;;;4.18;;
24644;SDS011;12780;45.502;9.146;2023-06-24T08:53:24;5.93;;;3.90;;
24644;SDS011;12780;45.502;9.146;2023-06-24T08:55:52;9.05;;;3.67;;
24644;SDS011;12780;45.502;9.146;2023-06-24T08:58:19;6.75;;;3.90;;
24644;SDS011;12780;45.502;9.146;2023-06-24T09:00:45;9.95;;;4.30;;
24644;SDS011;12780;45.502;9.146;2023-06-24T09:03:11;11.43;;;3.90;;
24644;SDS011;12780;45.502;9.146;2023-06-24T09:05:37;8.75;;;4.47;;
24644;SDS011;12780;45.502;9.146;2023-06-24T09:08:03;10.77;;;4.07;;
24644;SDS011;12780;45.502;9.146;2023-06-24T09:10:33;7.25;;;3.92;;
24644;SDS011;12780;45.502;9.146;2023-06-24T09:13:00;12.25;;;4.75;;
24644;SDS011;12780;45.502;9.146;2023-06-24T09:15:33;8.20;;;3.95;;
24644;SDS011;12780;45.502;9.146;2023-06-24T09:18:00;7.22;;;4.18;;
24644;SDS011;12780;45.502;9.146;2023-06-24T09:20:26;11.57;;;4.10;;
24644;SDS011;12780;45.502;9.146;2023-06-24T09:22:59;8.48;;;4.20;;
24644;SDS011;12780;45.502;9.146;2023-06-24T09:25:26;9.18;;;4.13;;
24644;SDS011;12780;45.502;9.146;2023-06-24T09:27:52;9.48;;;4.40;;
24644;SDS011;12780;45.502;9.146;2023-06-24T09:30:21;9.98;;;4.32;;
24644;SDS011;12780;45.502;9.146;2023-06-24T09:32:47;11.02;;;4.43;;
24644;SDS011;12780;45.502;9.146;2023-06-24T09:35:14;7.80;;;4.45;;
24644;SDS011;12780;45.502;9.146;2023-06-24T09:37:40;11.32;;;4.82;;
24644;SDS011;12780;45.502;9.146;2023-06-24T09:40:06;13.52;;;4.70;;
24644;SDS011;12780;45.502;9.146;2023-06-24T09:42:35;9.77;;;4.25;;
24644;SDS011;12780;45.502;9.146;2023-06-24T09:45:04;11.40;;;4.32;;
24644;SDS011;12780;45.502;9.146;2023-06-24T09:47:31;6.43;;;4.20;;
24644;SDS011;12780;45.502;9.146;2023-06-24T09:49:57;5.72;;;3.85;;
24644;SDS011;12780;45.502;9.146;2023-06-24T09:52:23;11.00;;;4.13;;
24644;SDS011;12780;45.502;9.146;2023-06-24T09:54:51;10.18;;;4.38;;
24644;SDS011;12780;45.502;9.146;2023-06-24T09:57:18;12.13;;;4.50;;
24644;SDS011;12780;45.502;9.146;2023-06-24T09:59:46;9.55;;;4.40;;
24644;SDS011;12780;45.502;9.146;2023-06-24T10:02:12;9.48;;;4.47;;
24644;SDS011;12780;45.502;9.146;2023-06-24T10:04:40;8.05;;;4.15;;
24644;SDS011;12780;45.502;9.146;2023-06-24T10:07:07;7.00;;;4.15;;
24644;SDS011;12780;45.502;9.146;2023-06-24T10:09:33;14.50;;;4.38;;
24644;SDS011;12780;45.502;9.146;2023-06-24T10:11:59;7.07;;;4.38;;
24644;SDS011;12780;45.502;9.146;2023-06-24T10:14:26;7.38;;;4.22;;
24644;SDS011;12780;45.502;9.146;2023-06-24T10:16:55;6.38;;;3.97;;
24644;SDS011;12780;45.502;9.146;2023-06-24T10:19:26;6.60;;;4.07;;
24644;SDS011;12780;45.502;9.146;2023-06-24T10:22:02;8.55;;;4.28;;
24644;SDS011;12780;45.502;9.146;2023-06-24T10:26:54;8.40;;;4.20;;
24644;SDS011;12780;45.502;9.146;2023-06-24T10:29:30;9.13;;;4.45;;
24644;SDS011;12780;45.502;9.146;2023-06-24T10:31:56;10.85;;;5.57;;
24644;SDS011;12780;45.502;9.146;2023-06-24T10:34:30;6.03;;;4.63;;
24644;SDS011;12780;45.502;9.146;2023-06-24T10:37:03;12.30;;;5.00;;
24644;SDS011;12780;45.502;9.146;2023-06-24T10:39:37;9.82;;;4.60;;
24644;SDS011;12780;45.502;9.146;2023-06-24T10:44:29;9.82;;;5.00;;
24644;SDS011;12780;45.502;9.146;2023-06-24T10:47:10;7.80;;;4.25;;
24644;SDS011;12780;45.502;9.146;2023-06-24T10:49:36;8.55;;;4.60;;
24644;SDS011;12780;45.502;9.146;2023-06-24T10:52:02;7.10;;;4.60;;
24644;SDS011;12780;45.502;9.146;2023-06-24T10:54:28;7.78;;;4.70;;
24644;SDS011;12780;45.502;9.146;2023-06-24T10:56:54;10.82;;;4.90;;
24644;SDS011;12780;45.502;9.146;2023-06-24T10:59:20;9.45;;;4.75;;
24644;SDS011;12780;45.502;9.146;2023-06-24T11:01:53;14.07;;;4.53;;
24644;SDS011;12780;45.502;9.146;2023-06-24T11:07:00;8.05;;;4.40;;
24644;SDS011;12780;45.502;9.146;2023-06-24T11:09:27;10.50;;;4.40;;
24644;SDS011;12780;45.502;9.146;2023-06-24T11:11:53;9.15;;;4.60;;
24644;SDS011;12780;45.502;9.146;2023-06-24T11:14:19;14.68;;;4.97;;
24644;SDS011;12780;45.502;9.146;2023-06-24T11:16:45;13.63;;;4.43;;
24644;SDS011;12780;45.502;9.146;2023-06-24T11:19:12;10.55;;;4.63;;
24644;SDS011;12780;45.502;9.146;2023-06-24T11:21:38;13.90;;;4.60;;
24644;SDS011;12780;45.502;9.146;2023-06-24T11:24:04;12.15;;;4.45;;
24644;SDS011;12780;45.502;9.146;2023-06-24T11:26:30;8.52;;;4.63;;
24644;SDS011;12780;45.502;9.146;2023-06-24T11:28:56;13.80;;;4.55;;
24644;SDS011;12780;45.502;9.146;2023-06-24T11:31:26;7.22;;;4.47;;
24644;SDS011;12780;45.502;9.146;2023-06-24T11:33:52;8.98;;;4.88;;
24644;SDS011;12780;45.502;9.146;2023-06-24T11:36:21;11.27;;;5.07;;
24644;SDS011;12780;45.502;9.146;2023-06-24T11:38:48;7.93;;;4.60;;
24644;SDS011;12780;45.502;9.146;2023-06-24T11:41:14;8.07;;;4.50;;
24644;SDS011;12780;45.502;9.146;2023-06-24T11:43:47;10.38;;;4.47;;
24644;SDS011;12780;45.502;9.146;2023-06-24T11:48:39;6.55;;;4.28;;
24644;SDS011;12780;45.502;9.146;2023-06-24T11:51:12;8.10;;;4.43;;
24644;SDS011;12780;45.502;9.146;2023-06-24T11:53:41;10.48;;;4.75;;
24644;SDS011;12780;45.502;9.146;2023-06-24T11:58:37;15.18;;;4.97;;
24644;SDS011;12780;45.502;9.146;2023-06-24T12:01:03;8.75;;;4.82;;
24644;SDS011;12780;45.502;9.146;2023-06-24T12:03:29;9.07;;;4.07;;
24644;SDS011;12780;45.502;9.146;2023-06-24T12:05:57;11.02;;;4.55;;
24644;SDS011;12780;45.502;9.146;2023-06-24T12:08:23;6.35;;;4.22;;
24644;SDS011;12780;45.502;9.146;2023-06-24T12:10:49;6.38;;;4.72;;
24644;SDS011;12780;45.502;9.146;2023-06-24T12:13:15;12.00;;;4.57;;
24644;SDS011;12780;45.502;9.146;2023-06-24T12:15:41;10.88;;;4.95;;
24644;SDS011;12780;45.502;9.146;2023-06-24T12:18:07;25.88;;;8.52;;
24644;SDS011;12780;45.502;9.146;2023-06-24T12:20:34;12.82;;;5.07;;
24644;SDS011;12780;45.502;9.146;2023-06-24T12:23:01;7.18;;;4.68;;
24644;SDS011;12780;45.502;9.146;2023-06-24T12:25:31;11.10;;;4.63;;
24644;SDS011;12780;45.502;9.146;2023-06-24T12:27:57;8.00;;;4.57;;
24644;SDS011;12780;45.502;9.146;2023-06-24T12:30:24;9.63;;;4.97;;
24644;SDS011;12780;45.502;9.146;2023-06-24T12:32:50;15.60;;;7.22;;
24644;SDS011;12780;45.502;9.146;2023-06-24T12:35:17;8.05;;;5.00;;
24644;SDS011;12780;45.502;9.146;2023-06-24T12:37:43;10.40;;;4.60;;
24644;SDS011;12780;45.502;9.146;2023-06-24T12:40:10;10.80;;;4.97;;
24644;SDS011;12780;45.502;9.146;2023-06-24T12:42:36;6.63;;;4.63;;
24644;SDS011;12780;45.502;9.146;2023-06-24T12:45:02;11.15;;;4.70;;
24644;SDS011;12780;45.502;9.146;2023-06-24T12:47:28;7.35;;;4.40;;
24644;SDS011;12780;45.502;9.146;2023-06-24T12:49:54;8.55;;;4.95;;
24644;SDS011;12780;45.502;9.146;2023-06-24T12:52:21;9.77;;;4.47;;
24644;SDS011;12780;45.502;9.146;2023-06-24T12:54:46;9.40;;;4.10;;
24644;SDS011;12780;45.502;9.146;2023-06-24T12:57:13;10.55;;;4.78;;
24644;SDS011;12780;45.502;9.146;2023-06-24T12:59:40;7.57;;;4.57;;
24644;SDS011;12780;45.502;9.146;2023-06-24T13:02:06;10.40;;;4.53;;
24644;SDS011;12780;45.502;9.146;2023-06-24T13:04:32;16.55;;;4.70;;
24644;SDS011;12780;45.502;9.146;2023-06-24T13:06:58;9.93;;;5.00;;
24644;SDS011;12780;45.502;9.146;2023-06-24T13:09:24;8.55;;;4.80;;
24644;SDS011;12780;45.502;9.146;2023-06-24T13:11:50;8.13;;;4.53;;
24644;SDS011;12780;45.502;9.146;2023-06-24T13:14:16;8.68;;;4.85;;
24644;SDS011;12780;45.502;9.146;2023-06-24T13:16:42;13.05;;;6.63;;
24644;SDS011;12780;45.502;9.146;2023-06-24T13:19:08;11.23;;;4.70;;
24644;SDS011;12780;45.502;9.146;2023-06-24T13:21:34;9.13;;;4.75;;
24644;SDS011;12780;45.502;9.146;2023-06-24T13:24:00;10.55;;;5.07;;
24644;SDS011;12780;45.502;9.146;2023-06-24T13:26:26;8.98;;;5.25;;
24644;SDS011;12780;45.502;9.146;2023-06-24T13:28:52;7.10;;;4.50;;
24644;SDS011;12780;45.502;9.146;2023-06-24T13:31:19;10.20;;;4.57;;
24644;SDS011;12780;45.502;9.146;2023-06-24T13:33:45;10.98;;;5.13;;
24644;SDS011;12780;45.502;9.146;2023-06-24T13:36:13;11.20;;;4.82;;
24644;SDS011;12780;45.502;9.146;2023-06-24T13:38:53;13.43;;;4.95;;
24644;SDS011;12780;45.502;9.146;2023-06-24T13:41:19;10.05;;;4.25;;
24644;SDS011;12780;45.502;9.146;2023-06-24T13:43:45;6.75;;;4.50;;
24644;SDS011;12780;45.502;9.146;2023-06-24T13:46:11;11.77;;;4.75;;
24644;SDS011;12780;45.502;9.146;2023-06-24T13:48:37;6.55;;;4.28;;
24644;SDS011;12780;45.502;9.146;2023-06-24T13:51:03;8.73;;;4.40;;
24644;SDS011;12780;45.502;9.146;2023-06-24T13:53:29;6.75;;;4.20;;
24644;SDS011;12780;45.502;9.146;2023-06-24T13:55:55;9.10;;;4.63;;
24644;SDS011;12780;45.502;9.146;2023-06-24T13:58:21;9.98;;;4.57;;
24644;SDS011;12780;45.502;9.146;2023-06-24T14:00:47;10.00;;;4.38;;
24644;SDS011;12780;45.502;9.146;2023-06-24T14:03:13;8.35;;;4.65;;
24644;SDS011;12780;45.502;9.146;2023-06-24T14:05:39;12.60;;;6.20;;
24644;SDS011;12780;45.502;9.146;2023-06-24T14:08:05;9.43;;;5.13;;
24644;SDS011;12780;45.502;9.146;2023-06-24T14:10:31;7.97;;;4.65;;
24644;SDS011;12780;45.502;9.146;2023-06-24T14:12:57;8.90;;;4.88;;
24644;SDS011;12780;45.502;9.146;2023-06-24T14:15:23;8.73;;;4.72;;
24644;SDS011;12780;45.502;9.146;2023-06-24T14:17:49;9.57;;;4.82;;
24644;SDS011;12780;45.502;9.146;2023-06-24T14:20:15;8.73;;;4.30;;
24644;SDS011;12780;45.502;9.146;2023-06-24T14:22:41;7.80;;;4.40;;
24644;SDS011;12780;45.502;9.146;2023-06-24T14:25:07;8.02;;;4.38;;
24644;SDS011;12780;45.502;9.146;2023-06-24T14:27:33;8.32;;;4.88;;
24644;SDS011;12780;45.502;9.146;2023-06-24T14:29:59;6.18;;;4.20;;
24644;SDS011;12780;45.502;9.146;2023-06-24T14:32:25;6.88;;;4.70;;
24644;SDS011;12780;45.502;9.146;2023-06-24T14:34:51;7.03;;;4.80;;
24644;SDS011;12780;45.502;9.146;2023-06-24T14:37:17;6.70;;;4.40;;
24644;SDS011;12780;45.502;9.146;2023-06-24T14:39:43;9.52;;;4.25;;
24644;SDS011;12780;45.502;9.146;2023-06-24T14:42:09;9.48;;;5.20;;
24644;SDS011;12780;45.502;9.146;2023-06-24T14:44:35;9.27;;;4.10;;
24644;SDS011;12780;45.502;9.146;2023-06-24T14:47:01;10.07;;;5.15;;
24644;SDS011;12780;45.502;9.146;2023-06-24T14:49:28;8.70;;;4.57;;
24644;SDS011;12780;45.502;9.146;2023-06-24T14:51:54;7.53;;;4.40;;
24644;SDS011;12780;45.502;9.146;2023-06-24T14:54:20;12.57;;;4.50;;
24644;SDS011;12780;45.502;9.146;2023-06-24T14:56:46;11.93;;;4.50;;
24644;SDS011;12780;45.502;9.146;2023-06-24T14:59:12;7.90;;;4.60;;
24644;SDS011;12780;45.502;9.146;2023-06-24T15:01:38;7.85;;;4.57;;
24644;SDS011;12780;45.502;9.146;2023-06-24T15:04:04;9.30;;;4.65;;
24644;SDS011;12780;45.502;9.146;2023-06-24T15:06:30;12.60;;;4.40;;